sensor_id;sensor_type;location;lat;lon;timestamp;pressure;altitude;pressure_sealevel;temperature;humidity
69405;BME280;57084;52.046;5.632;2022-12-18T00:00:00;102770;;;0.3;67.6
69405;BME280;57084;52.046;5.632;2022-12-18T00:01:00;102760;;;0.3;67.6
69405;BME280;57084;52.046;5.632;2022-12-18T00:02:00;102760;;;0.3;67.6
69405;BME280;57084;52.046;5.632;2022-12-18T00:03:00;102760;;;0.3;67.6
69405;BME280;57084;52.046;5.632;2022-12-18T00:04:00;102760;;;0.3;67.6
69405;BME280;57084;52.046;5.632;2022-12-18T00:05:00;102770;;;0.3;67.6
69405;BME280;57084;52.046;5.632;2022-12-18T00:06:00;102770;;;0.3;67.6
69405;BME280;57084;52.046;5.632;2022-12-18T00:07:00;102760;;;0.3;67.5
69405;BME280;57084;52.046;5.632;2022-12-18T00:08:00;102760;;;0.3;67.5
69405;BME280;57084;52.046;5.632;2022-12-18T00:09:01;102760;;;0.3;67.6
69405;BME280;57084;52.046;5.632;2022-12-18T00:10:00;102760;;;0.3;67.6
69405;BME280;57084;52.046;5.632;2022-12-18T00:11:02;102770;;;0.3;67.6
69405;BME280;57084;52.046;5.632;2022-12-18T00:12:00;102770;;;0.3;67.6
69405;BME280;57084;52.046;5.632;2022-12-18T00:13:00;102760;;;0.3;67.6
69405;BME280;57084;52.046;5.632;2022-12-18T00:14:00;102760;;;0.3;67.6
69405;BME280;57084;52.046;5.632;2022-12-18T00:15:00;102750;;;0.3;67.6
69405;BME280;57084;52.046;5.632;2022-12-18T00:16:01;102750;;;0.3;67.6
69405;BME280;57084;52.046;5.632;2022-12-18T00:17:00;102750;;;0.3;67.5
69405;BME280;57084;52.046;5.632;2022-12-18T00:18:00;102750;;;0.3;67.5
69405;BME280;57084;52.046;5.632;2022-12-18T00:19:00;102750;;;0.3;67.6
69405;BME280;57084;52.046;5.632;2022-12-18T00:20:00;102750;;;0.3;67.6
69405;BME280;57084;52.046;5.632;2022-12-18T00:21:00;102740;;;0.3;67.6
69405;BME280;57084;52.046;5.632;2022-12-18T00:22:00;102740;;;0.3;67.6
69405;BME280;57084;52.046;5.632;2022-12-18T00:23:00;102740;;;0.3;67.5
69405;BME280;57084;52.046;5.632;2022-12-18T00:24:00;102740;;;0.3;67.5
69405;BME280;57084;52.046;5.632;2022-12-18T00:25:00;102740;;;0.2;67.5
69405;BME280;57084;52.046;5.632;2022-12-18T00:26:00;102740;;;0.2;67.5
69405;BME280;57084;52.046;5.632;2022-12-18T00:27:00;102740;;;0.2;67.5
69405;BME280;57084;52.046;5.632;2022-12-18T00:28:00;102740;;;0.2;67.5
69405;BME280;57084;52.046;5.632;2022-12-18T00:29:00;102740;;;0.2;67.5
69405;BME280;57084;52.046;5.632;2022-12-18T00:30:00;102740;;;0.2;67.5
69405;BME280;57084;52.046;5.632;2022-12-18T00:31:00;102730;;;0.2;67.5
69405;BME280;57084;52.046;5.632;2022-12-18T00:32:00;102730;;;0.2;67.5
69405;BME280;57084;52.046;5.632;2022-12-18T00:33:00;102730;;;0.2;67.5
69405;BME280;57084;52.046;5.632;2022-12-18T00:34:00;102730;;;0.2;67.5
69405;BME280;57084;52.046;5.632;2022-12-18T00:35:00;102730;;;0.2;67.6
69405;BME280;57084;52.046;5.632;2022-12-18T00:36:00;102730;;;0.2;67.6
69405;BME280;57084;52.046;5.632;2022-12-18T00:37:00;102730;;;0.2;67.5
69405;BME280;57084;52.046;5.632;2022-12-18T00:38:00;102730;;;0.2;67.5
69405;BME280;57084;52.046;5.632;2022-12-18T00:39:00;102730;;;0.2;67.5
69405;BME280;57084;52.046;5.632;2022-12-18T00:40:00;102730;;;0.2;67.5
69405;BME280;57084;52.046;5.632;2022-12-18T00:41:00;102730;;;0.1;67.5
69405;BME280;57084;52.046;5.632;2022-12-18T00:42:00;102730;;;0.1;67.5
69405;BME280;57084;52.046;5.632;2022-12-18T00:43:00;102730;;;0.1;67.5
69405;BME280;57084;52.046;5.632;2022-12-18T00:44:00;102730;;;0.1;67.5
69405;BME280;57084;52.046;5.632;2022-12-18T00:45:00;102740;;;0.1;67.5
69405;BME280;57084;52.046;5.632;2022-12-18T00:46:00;102740;;;0.1;67.5
69405;BME280;57084;52.046;5.632;2022-12-18T00:47:00;102740;;;0.1;67.5
69405;BME280;57084;52.046;5.632;2022-12-18T00:48:00;102740;;;0.1;67.5
69405;BME280;57084;52.046;5.632;2022-12-18T00:49:00;102740;;;0.1;67.5
69405;BME280;57084;52.046;5.632;2022-12-18T00:50:00;102740;;;0.1;67.5
69405;BME280;57084;52.046;5.632;2022-12-18T00:51:00;102740;;;0.1;67.5
69405;BME280;57084;52.046;5.632;2022-12-18T00:52:00;102740;;;0.1;67.5
69405;BME280;57084;52.046;5.632;2022-12-18T00:53:00;102730;;;0.1;67.5
69405;BME280;57084;52.046;5.632;2022-12-18T00:54:00;102730;;;0.1;67.5
69405;BME280;57084;52.046;5.632;2022-12-18T00:55:00;102740;;;0.1;67.5
69405;BME280;57084;52.046;5.632;2022-12-18T00:56:00;102740;;;0.1;67.5
69405;BME280;57084;52.046;5.632;2022-12-18T00:57:00;102740;;;0.1;67.5
69405;BME280;57084;52.046;5.632;2022-12-18T00:58:00;102740;;;0.1;67.5
69405;BME280;57084;52.046;5.632;2022-12-18T00:59:00;102750;;;0.1;67.5
69405;BME280;57084;52.046;5.632;2022-12-18T01:00:00;102750;;;0.1;67.5
69405;BME280;57084;52.046;5.632;2022-12-18T01:01:00;102750;;;0.0;67.5
69405;BME280;57084;52.046;5.632;2022-12-18T01:02:00;102750;;;0.0;67.5
69405;BME280;57084;52.046;5.632;2022-12-18T01:03:00;102750;;;0.0;67.4
69405;BME280;57084;52.046;5.632;2022-12-18T01:04:00;102750;;;0.0;67.4
69405;BME280;57084;52.046;5.632;2022-12-18T01:05:00;102740;;;0.0;67.5
69405;BME280;57084;52.046;5.632;2022-12-18T01:06:04;102740;;;0.0;67.5
69405;BME280;57084;52.046;5.632;2022-12-18T01:07:00;102740;;;-0.0;67.5
69405;BME280;57084;52.046;5.632;2022-12-18T01:08:00;102740;;;-0.0;67.5
69405;BME280;57084;52.046;5.632;2022-12-18T01:09:00;102740;;;-0.0;67.5
69405;BME280;57084;52.046;5.632;2022-12-18T01:10:00;102740;;;-0.0;67.5
69405;BME280;57084;52.046;5.632;2022-12-18T01:11:00;102740;;;-0.1;67.5
69405;BME280;57084;52.046;5.632;2022-12-18T01:12:00;102740;;;-0.1;67.5
69405;BME280;57084;52.046;5.632;2022-12-18T01:13:00;102730;;;-0.1;67.5
69405;BME280;57084;52.046;5.632;2022-12-18T01:14:00;102730;;;-0.1;67.5
69405;BME280;57084;52.046;5.632;2022-12-18T01:15:00;102730;;;-0.1;67.5
69405;BME280;57084;52.046;5.632;2022-12-18T01:16:00;102730;;;-0.1;67.5
69405;BME280;57084;52.046;5.632;2022-12-18T01:17:00;102720;;;-0.1;67.5
69405;BME280;57084;52.046;5.632;2022-12-18T01:18:00;102720;;;-0.1;67.5
69405;BME280;57084;52.046;5.632;2022-12-18T01:19:00;102720;;;-0.1;67.5
69405;BME280;57084;52.046;5.632;2022-12-18T01:20:00;102720;;;-0.1;67.5
69405;BME280;57084;52.046;5.632;2022-12-18T01:21:00;102710;;;-0.1;67.4
69405;BME280;57084;52.046;5.632;2022-12-18T01:22:00;102710;;;-0.1;67.4
69405;BME280;57084;52.046;5.632;2022-12-18T01:23:00;102720;;;-0.1;67.4
69405;BME280;57084;52.046;5.632;2022-12-18T01:24:00;102720;;;-0.1;67.4
69405;BME280;57084;52.046;5.632;2022-12-18T01:25:00;102720;;;-0.1;67.4
69405;BME280;57084;52.046;5.632;2022-12-18T01:26:03;102720;;;-0.1;67.4
69405;BME280;57084;52.046;5.632;2022-12-18T01:27:00;102730;;;-0.2;67.4
69405;BME280;57084;52.046;5.632;2022-12-18T01:28:00;102730;;;-0.2;67.4
69405;BME280;57084;52.046;5.632;2022-12-18T01:29:00;102730;;;-0.2;67.4
69405;BME280;57084;52.046;5.632;2022-12-18T01:30:00;102730;;;-0.2;67.4
69405;BME280;57084;52.046;5.632;2022-12-18T01:31:09;102740;;;-0.2;67.4
69405;BME280;57084;52.046;5.632;2022-12-18T01:32:00;102740;;;-0.2;67.4
69405;BME280;57084;52.046;5.632;2022-12-18T01:33:00;102740;;;-0.2;67.4
69405;BME280;57084;52.046;5.632;2022-12-18T01:34:00;102740;;;-0.2;67.4
69405;BME280;57084;52.046;5.632;2022-12-18T01:35:00;102750;;;-0.2;67.4
69405;BME280;57084;52.046;5.632;2022-12-18T01:36:00;102750;;;-0.2;67.4
69405;BME280;57084;52.046;5.632;2022-12-18T01:37:01;102740;;;-0.2;67.4
69405;BME280;57084;52.046;5.632;2022-12-18T01:38:00;102740;;;-0.2;67.4
69405;BME280;57084;52.046;5.632;2022-12-18T01:39:00;102740;;;-0.2;67.4
69405;BME280;57084;52.046;5.632;2022-12-18T01:40:00;102740;;;-0.2;67.4
69405;BME280;57084;52.046;5.632;2022-12-18T01:41:00;102750;;;-0.2;67.4
69405;BME280;57084;52.046;5.632;2022-12-18T01:42:00;102750;;;-0.2;67.4
69405;BME280;57084;52.046;5.632;2022-12-18T01:43:00;102750;;;-0.2;67.3
69405;BME280;57084;52.046;5.632;2022-12-18T01:44:00;102750;;;-0.2;67.3
69405;BME280;57084;52.046;5.632;2022-12-18T01:45:02;102740;;;-0.2;67.4
69405;BME280;57084;52.046;5.632;2022-12-18T01:46:00;102740;;;-0.2;67.4
69405;BME280;57084;52.046;5.632;2022-12-18T01:47:00;102740;;;-0.2;67.3
69405;BME280;57084;52.046;5.632;2022-12-18T01:48:00;102740;;;-0.2;67.3
69405;BME280;57084;52.046;5.632;2022-12-18T01:49:00;102740;;;-0.2;67.3
69405;BME280;57084;52.046;5.632;2022-12-18T01:50:02;102740;;;-0.2;67.3
69405;BME280;57084;52.046;5.632;2022-12-18T01:51:00;102740;;;-0.2;67.2
69405;BME280;57084;52.046;5.632;2022-12-18T01:52:00;102740;;;-0.2;67.2
69405;BME280;57084;52.046;5.632;2022-12-18T01:53:02;102740;;;-0.3;67.2
69405;BME280;57084;52.046;5.632;2022-12-18T01:54:00;102740;;;-0.3;67.2
69405;BME280;57084;52.046;5.632;2022-12-18T01:55:00;102740;;;-0.3;67.2
69405;BME280;57084;52.046;5.632;2022-12-18T01:56:00;102740;;;-0.3;67.2
69405;BME280;57084;52.046;5.632;2022-12-18T01:57:00;102740;;;-0.3;67.2
69405;BME280;57084;52.046;5.632;2022-12-18T01:58:00;102740;;;-0.3;67.2
69405;BME280;57084;52.046;5.632;2022-12-18T01:59:01;102750;;;-0.3;67.2
69405;BME280;57084;52.046;5.632;2022-12-18T02:00:02;102750;;;-0.3;67.2
69405;BME280;57084;52.046;5.632;2022-12-18T02:01:00;102740;;;-0.3;67.2
69405;BME280;57084;52.046;5.632;2022-12-18T02:02:00;102740;;;-0.3;67.2
69405;BME280;57084;52.046;5.632;2022-12-18T02:03:00;102750;;;-0.3;67.2
69405;BME280;57084;52.046;5.632;2022-12-18T02:04:13;102750;;;-0.3;67.2
69405;BME280;57084;52.046;5.632;2022-12-18T02:05:00;102750;;;-0.3;67.2
69405;BME280;57084;52.046;5.632;2022-12-18T02:06:00;102750;;;-0.3;67.2
69405;BME280;57084;52.046;5.632;2022-12-18T02:07:03;102750;;;-0.4;67.2
69405;BME280;57084;52.046;5.632;2022-12-18T02:08:01;102750;;;-0.4;67.2
69405;BME280;57084;52.046;5.632;2022-12-18T02:09:02;102750;;;-0.4;67.2
69405;BME280;57084;52.046;5.632;2022-12-18T02:10:02;102750;;;-0.4;67.2
69405;BME280;57084;52.046;5.632;2022-12-18T02:11:02;102750;;;-0.4;67.2
69405;BME280;57084;52.046;5.632;2022-12-18T02:12:02;102750;;;-0.4;67.2
69405;BME280;57084;52.046;5.632;2022-12-18T02:13:02;102750;;;-0.4;67.1
69405;BME280;57084;52.046;5.632;2022-12-18T02:14:02;102750;;;-0.4;67.1
69405;BME280;57084;52.046;5.632;2022-12-18T02:15:02;102760;;;-0.4;67.1
69405;BME280;57084;52.046;5.632;2022-12-18T02:16:01;102760;;;-0.4;67.1
69405;BME280;57084;52.046;5.632;2022-12-18T02:17:01;102750;;;-0.4;67.1
69405;BME280;57084;52.046;5.632;2022-12-18T02:18:01;102750;;;-0.4;67.1
69405;BME280;57084;52.046;5.632;2022-12-18T02:19:00;102750;;;-0.5;67.1
69405;BME280;57084;52.046;5.632;2022-12-18T02:20:02;102750;;;-0.5;67.1
69405;BME280;57084;52.046;5.632;2022-12-18T02:21:00;102750;;;-0.5;67.1
69405;BME280;57084;52.046;5.632;2022-12-18T02:22:07;102750;;;-0.5;67.1
69405;BME280;57084;52.046;5.632;2022-12-18T02:23:04;102750;;;-0.5;67.1
69405;BME280;57084;52.046;5.632;2022-12-18T02:24:04;102750;;;-0.5;67.1
69405;BME280;57084;52.046;5.632;2022-12-18T02:25:05;102750;;;-0.5;67.1
69405;BME280;57084;52.046;5.632;2022-12-18T02:26:05;102750;;;-0.5;67.1
69405;BME280;57084;52.046;5.632;2022-12-18T02:27:00;102740;;;-0.5;67.1
69405;BME280;57084;52.046;5.632;2022-12-18T02:28:00;102740;;;-0.5;67.1
69405;BME280;57084;52.046;5.632;2022-12-18T02:29:00;102750;;;-0.5;67.0
69405;BME280;57084;52.046;5.632;2022-12-18T02:30:00;102750;;;-0.5;67.0
69405;BME280;57084;52.046;5.632;2022-12-18T02:31:01;102750;;;-0.5;67.1
69405;BME280;57084;52.046;5.632;2022-12-18T02:32:00;102750;;;-0.5;67.1
69405;BME280;57084;52.046;5.632;2022-12-18T02:33:00;102750;;;-0.6;67.1
69405;BME280;57084;52.046;5.632;2022-12-18T02:34:01;102750;;;-0.6;67.1
69405;BME280;57084;52.046;5.632;2022-12-18T02:35:00;102750;;;-0.6;67.1
69405;BME280;57084;52.046;5.632;2022-12-18T02:36:00;102750;;;-0.6;67.1
69405;BME280;57084;52.046;5.632;2022-12-18T02:37:01;102750;;;-0.6;67.0
69405;BME280;57084;52.046;5.632;2022-12-18T02:38:00;102750;;;-0.6;67.0
69405;BME280;57084;52.046;5.632;2022-12-18T02:39:00;102750;;;-0.6;67.0
69405;BME280;57084;52.046;5.632;2022-12-18T02:40:00;102750;;;-0.6;67.0
69405;BME280;57084;52.046;5.632;2022-12-18T02:41:00;102750;;;-0.6;67.0
69405;BME280;57084;52.046;5.632;2022-12-18T02:42:00;102750;;;-0.6;67.0
69405;BME280;57084;52.046;5.632;2022-12-18T02:43:02;102750;;;-0.6;67.0
69405;BME280;57084;52.046;5.632;2022-12-18T02:44:00;102750;;;-0.6;67.0
69405;BME280;57084;52.046;5.632;2022-12-18T02:45:00;102750;;;-0.6;67.0
69405;BME280;57084;52.046;5.632;2022-12-18T02:46:00;102750;;;-0.6;67.0
69405;BME280;57084;52.046;5.632;2022-12-18T02:47:00;102750;;;-0.6;67.0
69405;BME280;57084;52.046;5.632;2022-12-18T02:48:00;102750;;;-0.6;67.0
69405;BME280;57084;52.046;5.632;2022-12-18T02:49:02;102750;;;-0.6;67.0
69405;BME280;57084;52.046;5.632;2022-12-18T02:50:02;102750;;;-0.6;67.0
69405;BME280;57084;52.046;5.632;2022-12-18T02:51:02;102750;;;-0.6;67.0
69405;BME280;57084;52.046;5.632;2022-12-18T02:52:02;102750;;;-0.6;67.0
69405;BME280;57084;52.046;5.632;2022-12-18T02:53:02;102740;;;-0.7;66.9
69405;BME280;57084;52.046;5.632;2022-12-18T02:54:01;102740;;;-0.7;66.9
69405;BME280;57084;52.046;5.632;2022-12-18T02:55:03;102730;;;-0.7;66.9
69405;BME280;57084;52.046;5.632;2022-12-18T02:56:03;102730;;;-0.7;66.9
69405;BME280;57084;52.046;5.632;2022-12-18T02:57:02;102730;;;-0.7;67.0
69405;BME280;57084;52.046;5.632;2022-12-18T02:58:02;102730;;;-0.7;67.0
69405;BME280;57084;52.046;5.632;2022-12-18T02:59:00;102730;;;-0.7;66.9
69405;BME280;57084;52.046;5.632;2022-12-18T03:00:02;102730;;;-0.7;66.9
69405;BME280;57084;52.046;5.632;2022-12-18T03:01:01;102730;;;-0.7;66.9
69405;BME280;57084;52.046;5.632;2022-12-18T03:02:01;102730;;;-0.7;66.9
69405;BME280;57084;52.046;5.632;2022-12-18T03:03:02;102730;;;-0.7;66.9
69405;BME280;57084;52.046;5.632;2022-12-18T03:04:01;102730;;;-0.7;66.9
69405;BME280;57084;52.046;5.632;2022-12-18T03:05:01;102730;;;-0.7;66.9
69405;BME280;57084;52.046;5.632;2022-12-18T03:06:02;102730;;;-0.7;66.9
69405;BME280;57084;52.046;5.632;2022-12-18T03:07:01;102720;;;-0.7;66.9
69405;BME280;57084;52.046;5.632;2022-12-18T03:08:01;102720;;;-0.7;66.9
69405;BME280;57084;52.046;5.632;2022-12-18T03:09:01;102720;;;-0.7;66.8
69405;BME280;57084;52.046;5.632;2022-12-18T03:10:00;102720;;;-0.7;66.8
69405;BME280;57084;52.046;5.632;2022-12-18T03:11:01;102720;;;-0.7;66.9
69405;BME280;57084;52.046;5.632;2022-12-18T03:12:01;102720;;;-0.7;66.9
69405;BME280;57084;52.046;5.632;2022-12-18T03:13:02;102720;;;-0.7;66.8
69405;BME280;57084;52.046;5.632;2022-12-18T03:14:00;102720;;;-0.7;66.8
69405;BME280;57084;52.046;5.632;2022-12-18T03:15:01;102720;;;-0.7;66.8
69405;BME280;57084;52.046;5.632;2022-12-18T03:16:00;102720;;;-0.7;66.8
69405;BME280;57084;52.046;5.632;2022-12-18T03:17:00;102710;;;-0.7;66.8
69405;BME280;57084;52.046;5.632;2022-12-18T03:18:02;102710;;;-0.7;66.8
69405;BME280;57084;52.046;5.632;2022-12-18T03:19:00;102710;;;-0.7;66.8
69405;BME280;57084;52.046;5.632;2022-12-18T03:20:02;102710;;;-0.7;66.8
69405;BME280;57084;52.046;5.632;2022-12-18T03:21:01;102710;;;-0.7;66.8
69405;BME280;57084;52.046;5.632;2022-12-18T03:22:01;102710;;;-0.7;66.8
69405;BME280;57084;52.046;5.632;2022-12-18T03:23:02;102710;;;-0.8;66.8
69405;BME280;57084;52.046;5.632;2022-12-18T03:24:00;102710;;;-0.8;66.8
69405;BME280;57084;52.046;5.632;2022-12-18T03:25:00;102700;;;-0.8;66.8
69405;BME280;57084;52.046;5.632;2022-12-18T03:26:01;102700;;;-0.8;66.8
69405;BME280;57084;52.046;5.632;2022-12-18T03:27:01;102700;;;-0.8;66.8
69405;BME280;57084;52.046;5.632;2022-12-18T03:28:00;102700;;;-0.8;66.8
69405;BME280;57084;52.046;5.632;2022-12-18T03:29:02;102700;;;-0.8;66.7
69405;BME280;57084;52.046;5.632;2022-12-18T03:30:01;102700;;;-0.8;66.7
69405;BME280;57084;52.046;5.632;2022-12-18T03:31:00;102700;;;-0.8;66.8
69405;BME280;57084;52.046;5.632;2022-12-18T03:32:01;102700;;;-0.8;66.8
69405;BME280;57084;52.046;5.632;2022-12-18T03:33:01;102700;;;-0.8;66.7
69405;BME280;57084;52.046;5.632;2022-12-18T03:34:01;102700;;;-0.8;66.7
69405;BME280;57084;52.046;5.632;2022-12-18T03:35:00;102690;;;-0.8;66.7
69405;BME280;57084;52.046;5.632;2022-12-18T03:36:00;102690;;;-0.8;66.7
69405;BME280;57084;52.046;5.632;2022-12-18T03:37:00;102690;;;-0.8;66.7
69405;BME280;57084;52.046;5.632;2022-12-18T03:38:00;102690;;;-0.8;66.7
69405;BME280;57084;52.046;5.632;2022-12-18T03:39:01;102680;;;-0.8;66.7
69405;BME280;57084;52.046;5.632;2022-12-18T03:40:00;102680;;;-0.8;66.7
69405;BME280;57084;52.046;5.632;2022-12-18T03:41:01;102680;;;-0.8;66.7
69405;BME280;57084;52.046;5.632;2022-12-18T03:42:01;102680;;;-0.8;66.7
69405;BME280;57084;52.046;5.632;2022-12-18T03:43:01;102680;;;-0.8;66.7
69405;BME280;57084;52.046;5.632;2022-12-18T03:44:01;102680;;;-0.8;66.7
69405;BME280;57084;52.046;5.632;2022-12-18T03:45:02;102680;;;-0.8;66.7
69405;BME280;57084;52.046;5.632;2022-12-18T03:46:02;102680;;;-0.8;66.7
69405;BME280;57084;52.046;5.632;2022-12-18T03:47:01;102680;;;-0.8;66.7
69405;BME280;57084;52.046;5.632;2022-12-18T03:48:01;102680;;;-0.8;66.7
69405;BME280;57084;52.046;5.632;2022-12-18T03:49:01;102680;;;-0.8;66.7
69405;BME280;57084;52.046;5.632;2022-12-18T03:50:02;102680;;;-0.8;66.7
69405;BME280;57084;52.046;5.632;2022-12-18T03:51:01;102680;;;-0.9;66.7
69405;BME280;57084;52.046;5.632;2022-12-18T03:52:01;102680;;;-0.9;66.7
69405;BME280;57084;52.046;5.632;2022-12-18T03:53:02;102680;;;-0.9;66.7
69405;BME280;57084;52.046;5.632;2022-12-18T03:54:01;102680;;;-0.9;66.7
69405;BME280;57084;52.046;5.632;2022-12-18T03:55:00;102680;;;-0.9;66.7
69405;BME280;57084;52.046;5.632;2022-12-18T03:56:00;102680;;;-0.9;66.7
69405;BME280;57084;52.046;5.632;2022-12-18T03:57:03;102680;;;-0.9;66.7
69405;BME280;57084;52.046;5.632;2022-12-18T03:58:00;102680;;;-0.9;66.7
69405;BME280;57084;52.046;5.632;2022-12-18T03:59:00;102680;;;-0.9;66.6
69405;BME280;57084;52.046;5.632;2022-12-18T04:00:00;102680;;;-0.9;66.6
69405;BME280;57084;52.046;5.632;2022-12-18T04:01:01;102680;;;-0.9;66.6
69405;BME280;57084;52.046;5.632;2022-12-18T04:02:00;102680;;;-0.9;66.6
69405;BME280;57084;52.046;5.632;2022-12-18T04:03:00;102680;;;-0.9;66.6
69405;BME280;57084;52.046;5.632;2022-12-18T04:04:00;102680;;;-0.9;66.6
69405;BME280;57084;52.046;5.632;2022-12-18T04:05:01;102680;;;-0.9;66.6
69405;BME280;57084;52.046;5.632;2022-12-18T04:06:00;102680;;;-0.9;66.6
69405;BME280;57084;52.046;5.632;2022-12-18T04:07:00;102680;;;-0.9;66.6
69405;BME280;57084;52.046;5.632;2022-12-18T04:08:00;102680;;;-0.9;66.6
69405;BME280;57084;52.046;5.632;2022-12-18T04:09:00;102680;;;-0.9;66.6
69405;BME280;57084;52.046;5.632;2022-12-18T04:10:00;102680;;;-0.9;66.6
69405;BME280;57084;52.046;5.632;2022-12-18T04:11:00;102680;;;-0.9;66.6
69405;BME280;57084;52.046;5.632;2022-12-18T04:12:00;102680;;;-0.9;66.6
69405;BME280;57084;52.046;5.632;2022-12-18T04:13:00;102680;;;-0.9;66.6
69405;BME280;57084;52.046;5.632;2022-12-18T04:14:00;102680;;;-0.9;66.6
69405;BME280;57084;52.046;5.632;2022-12-18T04:15:00;102670;;;-0.9;66.6
69405;BME280;57084;52.046;5.632;2022-12-18T04:16:00;102670;;;-0.9;66.6
69405;BME280;57084;52.046;5.632;2022-12-18T04:17:00;102670;;;-0.9;66.6
69405;BME280;57084;52.046;5.632;2022-12-18T04:18:00;102670;;;-0.9;66.6
69405;BME280;57084;52.046;5.632;2022-12-18T04:19:00;102670;;;-1.0;66.6
69405;BME280;57084;52.046;5.632;2022-12-18T04:20:00;102670;;;-1.0;66.6
69405;BME280;57084;52.046;5.632;2022-12-18T04:21:00;102670;;;-1.0;66.6
69405;BME280;57084;52.046;5.632;2022-12-18T04:22:00;102670;;;-1.0;66.6
69405;BME280;57084;52.046;5.632;2022-12-18T04:23:00;102660;;;-1.0;66.6
69405;BME280;57084;52.046;5.632;2022-12-18T04:24:00;102660;;;-1.0;66.6
69405;BME280;57084;52.046;5.632;2022-12-18T04:25:00;102660;;;-1.0;66.5
69405;BME280;57084;52.046;5.632;2022-12-18T04:26:00;102660;;;-1.0;66.5
69405;BME280;57084;52.046;5.632;2022-12-18T04:27:00;102660;;;-1.0;66.6
69405;BME280;57084;52.046;5.632;2022-12-18T04:28:00;102660;;;-1.0;66.6
69405;BME280;57084;52.046;5.632;2022-12-18T04:29:00;102660;;;-1.0;66.6
69405;BME280;57084;52.046;5.632;2022-12-18T04:30:00;102660;;;-1.0;66.6
69405;BME280;57084;52.046;5.632;2022-12-18T04:31:00;102660;;;-1.0;66.5
69405;BME280;57084;52.046;5.632;2022-12-18T04:32:00;102660;;;-1.0;66.5
69405;BME280;57084;52.046;5.632;2022-12-18T04:33:00;102650;;;-1.0;66.5
69405;BME280;57084;52.046;5.632;2022-12-18T04:34:00;102650;;;-1.0;66.5
69405;BME280;57084;52.046;5.632;2022-12-18T04:35:00;102660;;;-1.0;66.5
69405;BME280;57084;52.046;5.632;2022-12-18T04:36:00;102660;;;-1.0;66.5
69405;BME280;57084;52.046;5.632;2022-12-18T04:37:00;102660;;;-1.0;66.5
69405;BME280;57084;52.046;5.632;2022-12-18T04:38:00;102660;;;-1.0;66.5
69405;BME280;57084;52.046;5.632;2022-12-18T04:39:00;102660;;;-1.1;66.5
69405;BME280;57084;52.046;5.632;2022-12-18T04:40:00;102660;;;-1.1;66.5
69405;BME280;57084;52.046;5.632;2022-12-18T04:41:00;102660;;;-1.1;66.5
69405;BME280;57084;52.046;5.632;2022-12-18T04:42:00;102660;;;-1.1;66.5
69405;BME280;57084;52.046;5.632;2022-12-18T04:43:00;102660;;;-1.1;66.5
69405;BME280;57084;52.046;5.632;2022-12-18T04:44:00;102660;;;-1.1;66.5
69405;BME280;57084;52.046;5.632;2022-12-18T04:45:00;102660;;;-1.1;66.5
69405;BME280;57084;52.046;5.632;2022-12-18T04:46:01;102660;;;-1.1;66.5
69405;BME280;57084;52.046;5.632;2022-12-18T04:47:00;102660;;;-1.1;66.5
69405;BME280;57084;52.046;5.632;2022-12-18T04:48:00;102660;;;-1.1;66.5
69405;BME280;57084;52.046;5.632;2022-12-18T04:49:00;102660;;;-1.1;66.5
69405;BME280;57084;52.046;5.632;2022-12-18T04:50:00;102660;;;-1.1;66.5
69405;BME280;57084;52.046;5.632;2022-12-18T04:51:00;102660;;;-1.1;66.5
69405;BME280;57084;52.046;5.632;2022-12-18T04:52:00;102660;;;-1.1;66.5
69405;BME280;57084;52.046;5.632;2022-12-18T04:53:00;102660;;;-1.1;66.5
69405;BME280;57084;52.046;5.632;2022-12-18T04:54:00;102660;;;-1.1;66.5
69405;BME280;57084;52.046;5.632;2022-12-18T04:55:00;102670;;;-1.2;66.5
69405;BME280;57084;52.046;5.632;2022-12-18T04:56:02;102670;;;-1.2;66.5
69405;BME280;57084;52.046;5.632;2022-12-18T04:57:00;102670;;;-1.2;66.5
69405;BME280;57084;52.046;5.632;2022-12-18T04:58:00;102670;;;-1.2;66.5
69405;BME280;57084;52.046;5.632;2022-12-18T04:59:00;102680;;;-1.2;66.5
69405;BME280;57084;52.046;5.632;2022-12-18T05:00:00;102680;;;-1.2;66.5
69405;BME280;57084;52.046;5.632;2022-12-18T05:01:00;102680;;;-1.1;66.4
69405;BME280;57084;52.046;5.632;2022-12-18T05:02:00;102680;;;-1.1;66.4
69405;BME280;57084;52.046;5.632;2022-12-18T05:03:00;102680;;;-1.2;66.4
69405;BME280;57084;52.046;5.632;2022-12-18T05:04:00;102680;;;-1.2;66.4
69405;BME280;57084;52.046;5.632;2022-12-18T05:05:00;102680;;;-1.2;66.4
69405;BME280;57084;52.046;5.632;2022-12-18T05:06:00;102680;;;-1.2;66.4
69405;BME280;57084;52.046;5.632;2022-12-18T05:07:00;102680;;;-1.2;66.4
69405;BME280;57084;52.046;5.632;2022-12-18T05:08:00;102680;;;-1.2;66.4
69405;BME280;57084;52.046;5.632;2022-12-18T05:09:00;102690;;;-1.2;66.3
69405;BME280;57084;52.046;5.632;2022-12-18T05:10:00;102690;;;-1.2;66.3
69405;BME280;57084;52.046;5.632;2022-12-18T05:11:00;102700;;;-1.2;66.3
69405;BME280;57084;52.046;5.632;2022-12-18T05:12:00;102700;;;-1.2;66.3
69405;BME280;57084;52.046;5.632;2022-12-18T05:13:00;102700;;;-1.2;66.3
69405;BME280;57084;52.046;5.632;2022-12-18T05:14:00;102700;;;-1.2;66.3
69405;BME280;57084;52.046;5.632;2022-12-18T05:15:00;102710;;;-1.2;66.3
69405;BME280;57084;52.046;5.632;2022-12-18T05:16:00;102710;;;-1.2;66.3
69405;BME280;57084;52.046;5.632;2022-12-18T05:17:00;102710;;;-1.2;66.3
69405;BME280;57084;52.046;5.632;2022-12-18T05:18:00;102710;;;-1.2;66.3
69405;BME280;57084;52.046;5.632;2022-12-18T05:19:00;102710;;;-1.3;66.3
69405;BME280;57084;52.046;5.632;2022-12-18T05:20:00;102710;;;-1.3;66.3
69405;BME280;57084;52.046;5.632;2022-12-18T05:21:00;102710;;;-1.3;66.3
69405;BME280;57084;52.046;5.632;2022-12-18T05:22:00;102710;;;-1.3;66.3
69405;BME280;57084;52.046;5.632;2022-12-18T05:23:00;102720;;;-1.3;66.3
69405;BME280;57084;52.046;5.632;2022-12-18T05:24:00;102720;;;-1.3;66.3
69405;BME280;57084;52.046;5.632;2022-12-18T05:25:00;102720;;;-1.3;66.3
69405;BME280;57084;52.046;5.632;2022-12-18T05:26:01;102720;;;-1.3;66.3
69405;BME280;57084;52.046;5.632;2022-12-18T05:27:00;102720;;;-1.3;66.3
69405;BME280;57084;52.046;5.632;2022-12-18T05:28:00;102720;;;-1.3;66.3
69405;BME280;57084;52.046;5.632;2022-12-18T05:29:00;102720;;;-1.3;66.3
69405;BME280;57084;52.046;5.632;2022-12-18T05:30:00;102720;;;-1.3;66.3
69405;BME280;57084;52.046;5.632;2022-12-18T05:31:00;102720;;;-1.3;66.3
69405;BME280;57084;52.046;5.632;2022-12-18T05:32:00;102720;;;-1.3;66.3
69405;BME280;57084;52.046;5.632;2022-12-18T05:33:00;102720;;;-1.4;66.3
69405;BME280;57084;52.046;5.632;2022-12-18T05:34:00;102720;;;-1.4;66.3
69405;BME280;57084;52.046;5.632;2022-12-18T05:35:00;102720;;;-1.4;66.2
69405;BME280;57084;52.046;5.632;2022-12-18T05:36:00;102720;;;-1.4;66.2